Time;durP1;ratioP1;P1;durP2;ratioP2;P2;SDS_P1;SDS_P2;PMS_P1;PMS_P2;Temp;Humidity;BMP_temperature;BMP_pressure;BME280_temperature;BME280_humidity;BME280_pressure;Samples;Min_cycle;Max_cycle;Signal;HPM_P1;HPM_P2
2023/10/22 00:05:33;;;;;;;7.95;4.22;;;;;;;21.65;100.00;101431.44;21003901;28;20061;-76
2023/10/22 00:15:56;;;;;;;9.52;4.55;;;;;;;21.67;100.00;101420.63;20945017;28;20060;-75
2023/10/22 00:26:20;;;;;;;9.88;4.88;;;;;;;21.59;100.00;101396.63;20941232;28;20098;-75
2023/10/22 00:36:44;;;;;;;10.00;5.35;;;;;;;21.54;100.00;101402.97;21002824;28;20148;-75
2023/10/22 00:47:14;;;;;;;7.97;4.03;;;;;;;20.96;100.00;101404.91;20996815;28;20408;-75
2023/10/22 00:57:37;;;;;;;5.97;3.45;;;;;;;20.69;100.00;101395.50;21008657;28;20045;-75
2023/10/22 01:08:03;;;;;;;8.20;3.35;;;;;;;20.68;100.00;101392.81;20988903;28;20556;-76
2023/10/22 01:18:25;;;;;;;9.05;3.95;;;;;;;20.34;100.00;101399.63;20980285;28;20053;-76
2023/10/22 01:28:49;;;;;;;6.30;4.00;;;;;;;20.31;100.00;101400.50;20971422;28;20078;-76
2023/10/22 01:39:14;;;;;;;9.98;4.40;;;;;;;20.09;100.00;101404.38;20998654;28;20098;-75
2023/10/22 01:49:40;;;;;;;6.65;3.63;;;;;;;20.10;100.00;101404.38;21008364;28;20048;-75
2023/10/22 02:00:02;;;;;;;11.35;4.25;;;;;;;19.98;100.00;101398.28;21005237;28;20060;-75
2023/10/22 02:10:28;;;;;;;7.20;3.30;;;;;;;19.47;100.00;101398.00;20981521;28;20609;-74
2023/10/22 02:20:56;;;;;;;7.40;3.75;;;;;;;19.70;100.00;101395.94;20977246;28;20049;-75
2023/10/22 02:31:21;;;;;;;;;;;;;;;19.58;100.00;101390.72;20979800;28;20060;-75
2023/10/22 02:41:45;;;;;;;6.68;3.53;;;;;;;19.55;100.00;101392.56;20948296;28;20011;-74
2023/10/22 02:52:10;;;;;;;5.88;3.50;;;;;;;19.56;100.00;101400.56;20986754;28;20428;-74
2023/10/22 03:02:33;;;;;;;8.13;3.78;;;;;;;19.67;100.00;101395.09;20973109;28;20048;-75
2023/10/22 03:12:59;;;;;;;9.50;4.13;;;;;;;19.82;100.00;101395.78;21000069;28;20055;-74
2023/10/22 03:23:22;;;;;;;6.22;3.38;;;;;;;19.72;100.00;101403.97;20918546;28;20196;-75
2023/10/22 03:33:47;;;;;;;7.70;3.28;;;;;;;19.54;100.00;101410.44;20937721;28;20079;-74
2023/10/22 03:44:09;;;;;;;10.60;4.07;;;;;;;19.84;100.00;101406.50;20973146;28;20048;-75
2023/10/22 03:54:33;;;;;;;9.65;4.43;;;;;;;19.97;100.00;101416.16;21000811;28;20048;-75
2023/10/22 04:04:55;;;;;;;10.05;4.43;;;;;;;19.97;100.00;101413.47;21002440;28;20098;-74
2023/10/22 04:15:19;;;;;;;9.73;4.80;;;;;;;19.98;100.00;101417.03;20923865;28;20451;-75
2023/10/22 04:25:44;;;;;;;10.18;4.45;;;;;;;19.97;100.00;101417.94;20905471;28;20440;-75
2023/10/22 04:36:16;;;;;;;8.52;3.72;;;;;;;19.88;100.00;101425.22;20882486;28;20053;-75
2023/10/22 04:46:38;;;;;;;5.93;3.58;;;;;;;20.03;100.00;101434.84;20905821;28;20152;-74
2023/10/22 04:57:03;;;;;;;9.27;5.03;;;;;;;20.29;100.00;101448.81;20979893;28;20041;-74
2023/10/22 05:07:25;;;;;;;8.43;5.10;;;;;;;20.47;100.00;101461.13;20983338;28;20056;-75
2023/10/22 05:17:49;;;;;;;9.65;4.10;;;;;;;20.94;100.00;101491.72;20981246;28;20477;-75
2023/10/22 05:28:12;;;;;;;8.00;3.80;;;;;;;21.43;100.00;101481.09;21014989;28;20048;-75
2023/10/22 05:38:36;;;;;;;6.93;3.20;;;;;;;21.85;100.00;101482.13;20936451;28;20052;-75
2023/10/22 05:49:00;;;;;;;6.82;2.60;;;;;;;22.32;100.00;101489.25;20995415;28;20082;-76
2023/10/22 05:59:24;;;;;;;6.15;2.05;;;;;;;22.71;100.00;101490.19;21001344;28;20560;-76
2023/10/22 06:09:47;;;;;;;4.28;1.40;;;;;;;23.14;100.00;101484.72;20849115;28;20053;-76
2023/10/22 06:20:12;;;;;;;6.15;2.03;;;;;;;23.94;100.00;101483.53;20962372;28;20052;-75
2023/10/22 06:30:35;;;;;;;3.55;1.25;;;;;;;24.53;69.73;101484.53;21012076;28;20075;-76
2023/10/22 06:40:59;;;;;;;1.75;1.10;;;;;;;25.22;61.42;101476.00;20995086;28;20086;-76
2023/10/22 06:51:22;;;;;;;3.55;1.10;;;;;;;25.97;53.67;101484.22;21010203;28;20045;-75
2023/10/22 07:01:46;;;;;;;2.40;1.10;;;;;;;26.64;54.91;101485.31;20992171;28;20432;-76
2023/10/22 07:12:08;;;;;;;3.25;1.20;;;;;;;27.47;50.35;101486.38;20915165;28;20053;-76
2023/10/22 07:22:33;;;;;;;2.33;1.00;;;;;;;28.22;44.18;101477.69;20904892;28;20037;-76
2023/10/22 07:32:56;;;;;;;6.70;2.00;;;;;;;28.59;50.15;101472.28;20954266;28;20060;-76
2023/10/22 07:43:20;;;;;;;4.90;2.10;;;;;;;28.54;74.29;101460.75;20991586;28;20044;-77
2023/10/22 07:53:43;;;;;;;5.38;2.10;;;;;;;28.52;70.58;101477.13;21011657;28;20473;-76
2023/10/22 08:04:08;;;;;;;7.80;2.13;;;;;;;28.71;65.29;101444.50;21008263;28;20106;-77
2023/10/22 08:14:31;;;;;;;7.93;2.63;;;;;;;28.96;68.40;101435.16;20945726;28;20053;-76
2023/10/22 08:24:55;;;;;;;6.53;1.95;;;;;;;29.22;62.88;101446.47;20986623;28;20071;-76
2023/10/22 08:35:17;;;;;;;4.80;2.38;;;;;;;29.46;57.98;101446.22;21019627;28;20573;-76
2023/10/22 08:45:45;;;;;;;3.90;1.25;;;;;;;29.79;49.03;101465.34;21003884;28;20101;-76
2023/10/22 08:56:08;;;;;;;3.30;1.25;;;;;;;30.27;45.58;101440.03;20881966;28;20401;-76
2023/10/22 09:06:32;;;;;;;5.45;1.38;;;;;;;30.54;42.04;101430.34;20950625;28;20053;-76
2023/10/22 09:16:55;;;;;;;3.78;1.10;;;;;;;30.81;39.27;101423.31;21004048;28;20063;-76
2023/10/22 09:27:26;;;;;;;4.00;1.25;;;;;;;31.01;38.88;101413.06;21017172;28;20049;-76
2023/10/22 09:37:51;;;;;;;2.28;1.00;;;;;;;31.22;39.85;101409.09;20902856;28;20063;-76
2023/10/22 09:48:15;;;;;;;2.53;1.13;;;;;;;31.53;39.56;101398.06;21001110;28;20059;-76
2023/10/22 09:58:44;;;;;;;7.03;1.33;;;;;;;31.51;38.74;101388.19;20986700;28;20056;-76
2023/10/22 10:09:09;;;;;;;5.15;1.30;;;;;;;31.83;37.63;101378.06;20979374;28;20049;-76
2023/10/22 10:19:32;;;;;;;6.93;1.77;;;;;;;31.94;37.43;101370.94;20984718;28;20044;-77
2023/10/22 10:30:20;;;;;;;3.45;1.83;;;;;;;31.92;38.23;101359.22;20983588;28;20386;-77
2023/10/22 10:40:44;;;;;;;6.78;1.50;;;;;;;31.32;39.61;101349.34;21012009;28;20548;-76
2023/10/22 10:51:19;;;;;;;6.43;1.63;;;;;;;30.81;41.96;101344.22;20996589;28;20045;-77
2023/10/22 11:01:41;;;;;;;2.92;1.50;;;;;;;30.52;45.04;101339.63;20975435;28;20131;-76
2023/10/22 11:12:08;;;;;;;7.70;2.00;;;;;;;30.50;47.48;101333.34;21002203;28;20052;-76
2023/10/22 11:22:30;;;;;;;4.40;1.40;;;;;;;30.38;47.27;101323.13;20987290;28;20049;-76
2023/10/22 11:32:54;;;;;;;9.00;2.72;;;;;;;30.18;45.43;101305.22;20920413;28;20476;-76
2023/10/22 11:43:18;;;;;;;5.95;1.73;;;;;;;30.06;45.76;101303.19;21009355;28;20138;-76
2023/10/22 11:53:42;;;;;;;10.38;4.28;;;;;;;29.89;46.69;101295.94;21007251;28;20094;-76
2023/10/22 12:04:05;;;;;;;7.40;2.35;;;;;;;29.83;46.64;101298.13;20970373;28;20106;-76
2023/10/22 12:14:29;;;;;;;5.50;2.03;;;;;;;29.63;46.80;101302.81;20971705;28;20044;-76
2023/10/22 12:24:57;;;;;;;5.38;1.85;;;;;;;29.54;47.09;101319.66;21006217;28;20496;-76
2023/10/22 12:35:21;;;;;;;2.75;1.90;;;;;;;29.51;46.31;101322.56;20981189;28;20582;-76
2023/10/22 12:45:44;;;;;;;6.68;2.22;;;;;;;29.59;57.11;101322.13;21018339;28;20048;-76
2023/10/22 12:56:08;;;;;;;5.75;1.60;;;;;;;29.48;61.21;101329.97;21004932;28;20090;-75
2023/10/22 13:06:30;;;;;;;6.60;2.15;;;;;;;29.36;59.57;101336.09;21009701;28;20056;-76
2023/10/22 13:16:55;;;;;;;7.10;2.10;;;;;;;29.09;55.35;101325.66;21017330;28;20055;-75
2023/10/22 13:27:18;;;;;;;4.10;2.13;;;;;;;28.83;56.39;101332.47;21015529;28;20053;-75
2023/10/22 13:37:42;;;;;;;8.60;2.10;;;;;;;28.64;60.70;101334.31;20966898;28;20105;-75
2023/10/22 13:48:04;;;;;;;6.22;1.90;;;;;;;28.34;65.73;101331.31;20986559;28;20080;-75
2023/10/22 13:58:29;;;;;;;8.23;2.88;;;;;;;27.92;70.50;101350.50;20946720;28;20447;-75
2023/10/22 14:08:52;;;;;;;6.32;2.45;;;;;;;27.61;75.17;101361.91;20951777;28;20333;-75
2023/10/22 14:19:15;;;;;;;6.97;2.40;;;;;;;27.27;86.64;101359.78;20923037;28;20041;-75
2023/10/22 14:29:38;;;;;;;7.63;2.40;;;;;;;27.09;90.22;101370.53;20929281;28;20052;-75
2023/10/22 14:40:03;;;;;;;8.02;2.70;;;;;;;26.92;93.40;101368.53;21012580;28;20044;-75
2023/10/22 14:50:25;;;;;;;9.90;3.00;;;;;;;26.69;98.49;101393.00;20982994;28;20132;-75
2023/10/22 15:00:49;;;;;;;8.45;3.05;;;;;;;26.41;100.00;101399.50;20973011;28;20417;-75
2023/10/22 15:11:18;;;;;;;7.97;3.20;;;;;;;26.21;100.00;101399.38;20976976;28;20482;-75
2023/10/22 15:21:43;;;;;;;8.65;3.75;;;;;;;25.95;100.00;101408.50;20967587;28;20064;-75
2023/10/22 15:32:06;;;;;;;7.82;3.55;;;;;;;25.72;100.00;101416.59;20988091;28;20044;-75
2023/10/22 15:42:30;;;;;;;12.63;4.65;;;;;;;25.43;100.00;101414.91;20957502;28;20102;-75
2023/10/22 15:52:54;;;;;;;11.70;3.70;;;;;;;25.20;100.00;101428.34;20958713;28;20056;-75
2023/10/22 16:03:18;;;;;;;12.38;4.10;;;;;;;25.05;100.00;101429.75;20947961;28;20056;-74
2023/10/22 16:13:41;;;;;;;8.50;5.15;;;;;;;24.85;100.00;101434.88;20889445;28;20074;-74
2023/10/22 16:24:05;;;;;;;12.40;5.22;;;;;;;24.61;100.00;101447.38;20876240;28;20123;-74
2023/10/22 16:34:28;;;;;;;11.63;4.53;;;;;;;24.49;100.00;101456.72;20894612;28;20279;-74
2023/10/22 16:44:53;;;;;;;11.13;4.47;;;;;;;24.38;100.00;101456.16;20884001;28;20094;-74
2023/10/22 16:55:15;;;;;;;14.18;5.03;;;;;;;24.11;100.00;101451.56;20902161;28;20049;-74
2023/10/22 17:05:40;;;;;;;11.07;5.30;;;;;;;23.93;100.00;101461.06;20883571;28;20056;-73
2023/10/22 17:16:03;;;;;;;11.32;4.65;;;;;;;23.77;100.00;101457.03;20858448;28;20103;-74
2023/10/22 17:26:28;;;;;;;9.40;4.70;;;;;;;23.56;100.00;101450.44;20877291;28;20132;-74
2023/10/22 17:36:51;;;;;;;10.82;5.05;;;;;;;23.41;100.00;101450.78;20884495;28;20515;-74
2023/10/22 17:47:16;;;;;;;9.10;4.90;;;;;;;23.31;100.00;101455.53;20912679;28;20504;-74
2023/10/22 17:57:38;;;;;;;14.68;7.45;;;;;;;23.06;100.00;101457.06;20888315;28;20080;-73
2023/10/22 18:08:03;;;;;;;13.30;7.50;;;;;;;22.77;100.00;101460.50;20908920;28;20059;-74
2023/10/22 18:18:25;;;;;;;10.65;6.28;;;;;;;22.76;100.00;101466.78;20875772;28;20045;-75
2023/10/22 18:28:50;;;;;;;9.05;5.20;;;;;;;22.65;100.00;101477.75;20878437;28;20493;-75
2023/10/22 18:39:12;;;;;;;9.35;5.68;;;;;;;22.39;100.00;101493.59;20847666;28;20724;-74
2023/10/22 18:49:37;;;;;;;19.23;12.07;;;;;;;22.22;100.00;101495.75;20858993;28;20135;-74
2023/10/22 18:59:59;;;;;;;12.00;6.47;;;;;;;22.13;100.00;101494.13;20839177;28;20144;-74
2023/10/22 19:10:24;;;;;;;9.73;6.50;;;;;;;21.94;100.00;101489.13;20866355;28;20052;-75
2023/10/22 19:20:56;;;;;;;11.13;5.28;;;;;;;21.80;100.00;101486.69;20909725;28;20044;-75
2023/10/22 19:31:22;;;;;;;10.50;5.28;;;;;;;21.65;100.00;101495.06;20917136;28;20077;-74
2023/10/22 19:41:45;;;;;;;10.98;4.50;;;;;;;21.56;100.00;101498.78;20913990;28;20040;-74
2023/10/22 19:52:10;;;;;;;11.00;4.10;;;;;;;21.45;100.00;101484.66;20887572;28;20053;-75
2023/10/22 20:02:33;;;;;;;10.40;4.60;;;;;;;21.37;100.00;101476.75;20924034;28;20103;-75
2023/10/22 20:12:57;;;;;;;11.27;4.68;;;;;;;21.15;100.00;101479.75;20860358;28;20042;-75
2023/10/22 20:23:20;;;;;;;11.95;5.60;;;;;;;20.88;100.00;101483.75;20856644;28;20405;-74
2023/10/22 20:33:45;;;;;;;10.93;4.88;;;;;;;20.75;100.00;101472.34;20855835;28;20057;-74
2023/10/22 20:44:08;;;;;;;8.52;3.95;;;;;;;20.69;100.00;101459.91;20937370;28;20397;-74
2023/10/22 20:54:32;;;;;;;7.85;2.88;;;;;;;20.58;100.00;101450.22;20935786;28;20045;-74
2023/10/22 21:04:54;;;;;;;10.57;3.42;;;;;;;20.46;100.00;101445.94;20927629;28;20514;-74
2023/10/22 21:15:18;;;;;;;7.13;2.70;;;;;;;20.36;100.00;101427.28;20916560;28;20571;-74
2023/10/22 21:25:40;;;;;;;7.07;3.35;;;;;;;20.21;100.00;101413.19;20912468;28;20443;-74
2023/10/22 21:36:05;;;;;;;6.97;2.65;;;;;;;20.15;100.00;101407.00;20922753;28;20053;-75
2023/10/22 21:46:28;;;;;;;8.18;2.95;;;;;;;20.01;100.00;101403.63;20880036;28;20119;-74
2023/10/22 21:56:52;;;;;;;10.50;3.13;;;;;;;19.92;100.00;101403.72;20848414;28;20136;-74
2023/10/22 22:07:14;;;;;;;8.07;3.17;;;;;;;19.80;100.00;101402.97;20888116;28;20045;-73
2023/10/22 22:17:38;;;;;;;9.55;2.47;;;;;;;19.83;100.00;101392.22;20904545;28;20056;-74
2023/10/22 22:28:01;;;;;;;8.80;2.65;;;;;;;19.81;100.00;101395.84;20998780;28;20109;-74
2023/10/22 22:38:25;;;;;;;10.27;2.53;;;;;;;19.71;100.00;101395.03;20922904;28;20053;-74
2023/10/22 22:48:47;;;;;;;10.15;2.40;;;;;;;19.65;100.00;101389.75;20885549;28;20384;-74
2023/10/22 22:59:11;;;;;;;9.30;2.30;;;;;;;19.69;96.46;101391.47;20876150;28;20084;-74
2023/10/22 23:09:34;;;;;;;12.02;2.53;;;;;;;19.61;93.94;101404.09;20877130;28;20729;-74
2023/10/22 23:19:58;;;;;;;14.80;2.83;;;;;;;19.43;93.42;101412.28;20884069;28;20045;-74
2023/10/22 23:30:20;;;;;;;10.70;2.58;;;;;;;19.29;95.00;101400.84;20881377;28;20394;-74
2023/10/22 23:40:45;;;;;;;11.38;2.85;;;;;;;19.27;93.82;101381.22;20861735;28;20436;-74
2023/10/22 23:51:08;;;;;;;13.55;3.15;;;;;;;19.16;92.34;101373.31;20884096;28;20111;-74
